Time;durP1;ratioP1;P1;durP2;ratioP2;P2;SDS_P1;SDS_P2;PMS_P1;PMS_P2;Temp;Humidity;BMP_temperature;BMP_pressure;BME280_temperature;BME280_humidity;BME280_pressure;Samples;Min_cycle;Max_cycle;Signal;HPM_P1;HPM_P2
2022/12/16 00:00:25;;;;;;;;;41.75;39.50;;;;;3.23;56.64;100375.09;2064453;28;46294;-66
2022/12/16 00:01:26;;;;;;;;;48.75;40.50;;;;;3.24;56.37;100379.47;2063343;28;46754;-66
2022/12/16 00:02:26;;;;;;;;;40.80;38.00;;;;;3.23;56.48;100379.47;2060293;28;47634;-67
2022/12/16 00:03:26;;;;;;;;;43.25;39.75;;;;;3.22;56.56;100388.19;2060374;28;46332;-67
2022/12/16 00:04:27;;;;;;;;;41.50;38.00;;;;;3.21;56.56;100381.22;2064231;28;46912;-67
2022/12/16 00:05:28;;;;;;;;;33.25;28.75;;;;;3.23;56.57;100390.81;2062969;28;45949;-67
2022/12/16 00:06:31;;;;;;;;;41.80;39.40;;;;;3.20;56.72;100384.72;2064745;28;47023;-66
2022/12/16 00:07:31;;;;;;;;;43.60;38.60;;;;;3.19;56.70;100389.06;2064107;28;46410;-67
2022/12/16 00:08:36;;;;;;;;;39.00;38.00;;;;;3.18;56.73;100383.84;2067990;28;48369;-66
2022/12/16 00:09:36;;;;;;;;;38.40;35.40;;;;;3.17;56.65;100387.28;2061756;28;46604;-66
2022/12/16 00:10:51;;;;;;;;;39.25;37.00;;;;;3.16;56.88;100389.03;2063964;28;46139;-67
2022/12/16 00:11:52;;;;;;;;;42.80;37.60;;;;;3.16;56.79;100390.78;2064451;28;45881;-67
2022/12/16 00:12:52;;;;;;;;;41.00;39.00;;;;;3.16;56.98;100393.41;2063290;28;45952;-66
2022/12/16 00:13:53;;;;;;;;;40.50;38.25;;;;;3.15;56.85;100389.03;2055789;28;46277;-66
2022/12/16 00:14:54;;;;;;;;;46.25;40.50;;;;;3.15;56.92;100399.53;2054739;28;46441;-67
2022/12/16 00:15:54;;;;;;;;;49.50;43.00;;;;;3.15;56.99;100394.28;2055424;28;46736;-66
2022/12/16 00:16:55;;;;;;;;;40.00;38.75;;;;;3.14;56.93;100396.03;2053814;28;46848;-66
2022/12/16 00:17:55;;;;;;;;;43.50;38.00;;;;;3.14;56.73;100401.28;2064236;28;46072;-67
2022/12/16 00:18:55;;;;;;;;;37.25;35.50;;;;;3.14;56.86;100397.78;2068120;28;46627;-67
2022/12/16 00:19:56;;;;;;;;;37.25;36.25;;;;;3.13;56.98;100398.66;2072780;28;46149;-66
2022/12/16 00:20:57;;;;;;;;;40.00;38.25;;;;;3.14;56.87;100397.78;2072275;28;45873;-66
2022/12/16 00:21:58;;;;;;;;;40.80;38.80;;;;;3.14;56.84;100406.53;2074664;28;45909;-65
2022/12/16 00:22:58;;;;;;;;;40.00;36.00;;;;;3.15;57.24;100415.25;2076301;28;46763;-65
2022/12/16 00:23:58;;;;;;;;;35.25;33.00;;;;;3.13;57.42;100404.78;2071820;28;45286;-66
2022/12/16 00:24:59;;;;;;;;;44.25;41.50;;;;;3.15;57.05;100412.63;2071054;28;46372;-65
2022/12/16 00:25:59;;;;;;;;;43.25;41.00;;;;;3.15;57.14;100407.41;2072707;28;46803;-66
2022/12/16 00:27:00;;;;;;;;;40.00;38.50;;;;;3.14;57.32;100414.38;2068342;28;46199;-66
2022/12/16 00:28:00;;;;;;;;;41.75;38.75;;;;;3.15;56.88;100420.50;2071540;28;46821;-67
2022/12/16 00:29:00;;;;;;;;;53.75;42.75;;;;;3.12;57.21;100418.75;2070874;28;46708;-67
2022/12/16 00:30:01;;;;;;;;;43.25;39.75;;;;;3.13;56.96;100417.88;2066722;28;46470;-66
2022/12/16 00:31:01;;;;;;;;;43.75;39.25;;;;;3.13;56.80;100425.75;2067886;28;46009;-65
2022/12/16 00:32:01;;;;;;;;;27.25;27.00;;;;;3.13;56.89;100423.13;2072459;28;46567;-66
2022/12/16 00:33:03;;;;;;;;;43.25;39.75;;;;;3.14;57.11;100427.50;2065084;28;46383;-65
2022/12/16 00:34:03;;;;;;;;;47.20;42.00;;;;;3.13;57.02;100423.13;2062809;28;47271;-65
2022/12/16 00:35:04;;;;;;;;;46.50;39.50;;;;;3.14;57.16;100422.25;2071349;28;45790;-66
2022/12/16 00:36:04;;;;;;;;;47.25;41.50;;;;;3.14;57.01;100424.88;2057119;28;46889;-65
2022/12/16 00:37:04;;;;;;;;;44.25;40.75;;;;;3.14;57.17;100421.38;2053614;28;46780;-66
2022/12/16 00:38:05;;;;;;;;;50.00;43.00;;;;;3.14;57.21;100427.50;2052413;28;46275;-63
2022/12/16 00:39:05;;;;;;;;;42.50;38.75;;;;;3.14;57.38;100424.00;2046930;28;45286;-71
2022/12/16 00:40:06;;;;;;;;;43.75;40.00;;;;;3.13;56.77;100427.50;2057365;28;46835;-66
2022/12/16 00:41:07;;;;;;;;;49.25;42.50;;;;;3.14;57.36;100432.75;2057285;28;46513;-65
2022/12/16 00:42:07;;;;;;;;;45.00;42.00;;;;;3.13;57.10;100423.13;2060056;28;46607;-66
2022/12/16 00:43:07;;;;;;;;;52.75;42.75;;;;;3.14;57.17;100434.50;2054019;28;45782;-66
2022/12/16 00:44:08;;;;;;;;;48.25;42.00;;;;;3.12;57.13;100424.00;2054946;28;46968;-66
2022/12/16 00:45:09;;;;;;;;;47.00;41.50;;;;;3.13;57.21;100425.75;2053587;28;45636;-64
2022/12/16 00:46:09;;;;;;;;;48.00;42.00;;;;;3.13;57.38;100424.88;2046550;28;46798;-65
2022/12/16 00:47:09;;;;;;;;;38.25;37.50;;;;;3.12;57.28;100429.25;2045078;28;46675;-65
2022/12/16 00:48:10;;;;;;;;;49.00;41.75;;;;;3.12;57.50;100428.38;2058863;28;46738;-65
2022/12/16 00:49:10;;;;;;;;;45.50;42.25;;;;;3.12;57.25;100426.63;2053588;28;46447;-66
2022/12/16 00:50:10;;;;;;;;;48.50;41.75;;;;;3.13;57.58;100424.88;2047554;28;46362;-65
2022/12/16 00:51:11;;;;;;;;;36.50;31.50;;;;;3.12;57.38;100426.63;2038026;28;46808;-66
2022/12/16 00:52:11;;;;;;;;;48.75;41.50;;;;;3.12;57.12;100428.38;2049991;28;46918;-66
2022/12/16 00:53:12;;;;;;;;;41.50;38.25;;;;;3.11;57.27;100429.25;2056998;28;45645;-64
2022/12/16 00:54:12;;;;;;;;;47.50;41.75;;;;;3.10;57.33;100428.38;2054977;28;46795;-65
2022/12/16 00:55:14;;;;;;;;;49.00;43.00;;;;;3.10;56.91;100428.38;2044229;28;45501;-64
2022/12/16 00:56:14;;;;;;;;;48.20;41.40;;;;;3.10;57.62;100431.00;2050754;28;46317;-65
2022/12/16 00:57:14;;;;;;;;;45.50;40.00;;;;;3.11;57.42;100429.25;2053920;28;46238;-65
2022/12/16 00:58:15;;;;;;;;;44.25;37.50;;;;;3.11;57.14;100431.88;2054968;28;46280;-65
2022/12/16 00:59:16;;;;;;;;;43.40;40.00;;;;;3.11;57.42;100424.00;2053786;28;45747;-66
2022/12/16 01:00:17;;;;;;;;;42.25;38.75;;;;;3.12;57.35;100433.59;2055694;28;46548;-66
2022/12/16 01:01:18;;;;;;;;;46.00;42.60;;;;;3.12;57.27;100437.09;2054166;28;46644;-65
2022/12/16 01:02:18;;;;;;;;;51.00;43.25;;;;;3.09;57.59;100434.47;2056468;28;46661;-64
2022/12/16 01:03:19;;;;;;;;;51.50;45.75;;;;;3.09;57.44;100434.47;2053218;28;46179;-65
2022/12/16 01:04:19;;;;;;;;;48.75;42.50;;;;;3.09;57.53;100430.97;2054608;28;46837;-66
2022/12/16 01:05:25;;;;;;;;;51.50;45.00;;;;;3.10;57.50;100440.59;2046259;28;45280;-66
2022/12/16 01:06:25;;;;;;;;;48.00;42.80;;;;;3.10;57.51;100444.09;2046826;28;47149;-66
2022/12/16 01:07:26;;;;;;;;;49.50;43.00;;;;;3.10;57.40;100432.72;2054481;28;46836;-66
2022/12/16 01:08:26;;;;;;;;;57.00;47.75;;;;;3.11;57.18;100439.72;2062566;28;46236;-65
2022/12/16 01:09:26;;;;;;;;;51.75;44.50;;;;;3.09;57.66;100439.72;2070880;28;46200;-66
2022/12/16 01:10:27;;;;;;;;;53.75;45.25;;;;;3.11;57.46;100440.59;2073479;28;46679;-66
2022/12/16 01:11:27;;;;;;;;;50.25;44.00;;;;;3.09;57.63;100434.47;2071667;28;46152;-66
2022/12/16 01:12:27;;;;;;;;;52.00;44.75;;;;;3.10;57.66;100437.97;2076183;28;46307;-65
2022/12/16 01:13:28;;;;;;;;;47.00;41.00;;;;;3.09;58.01;100442.34;2071051;28;46269;-66
2022/12/16 01:14:29;;;;;;;;;47.00;43.25;;;;;3.09;57.75;100441.47;2071973;28;46683;-65
2022/12/16 01:15:29;;;;;;;;;48.75;42.50;;;;;3.09;57.68;100450.22;2070403;28;45223;-66
2022/12/16 01:16:29;;;;;;;;;46.50;41.75;;;;;3.09;57.12;100439.72;2071855;28;46313;-66
2022/12/16 01:17:30;;;;;;;;;47.25;41.75;;;;;3.10;57.72;100448.47;2071851;28;46591;-66
2022/12/16 01:18:30;;;;;;;;;40.75;38.25;;;;;3.10;57.74;100449.34;2071622;28;46366;-65
2022/12/16 01:19:30;;;;;;;;;51.50;42.50;;;;;3.10;57.75;100448.47;2070381;28;45492;-65
2022/12/16 01:20:32;;;;;;;;;46.00;40.00;;;;;3.09;57.63;100454.59;2071638;28;46278;-66
2022/12/16 01:21:32;;;;;;;;;45.00;41.60;;;;;3.08;57.80;100453.72;2071432;28;46374;-65
2022/12/16 01:22:33;;;;;;;;;52.00;44.50;;;;;3.08;57.86;100448.47;2071890;28;46615;-65
2022/12/16 01:23:34;;;;;;;;;55.80;45.00;;;;;3.09;57.45;100454.59;2061574;28;46504;-66
2022/12/16 01:24:34;;;;;;;;;47.75;42.25;;;;;3.09;57.58;100450.22;2063422;28;46551;-67
2022/12/16 01:25:35;;;;;;;;;52.25;44.50;;;;;3.07;57.67;100451.97;2070244;28;47167;-66
2022/12/16 01:26:36;;;;;;;;;54.00;42.50;;;;;3.08;57.66;100463.31;2071208;28;46610;-66
2022/12/16 01:27:36;;;;;;;;;51.50;45.00;;;;;3.07;57.62;100459.81;2071314;28;46742;-67
2022/12/16 01:28:36;;;;;;;;;57.50;47.00;;;;;3.08;57.86;100460.69;2072152;28;46589;-66
2022/12/16 01:29:37;;;;;;;;;49.75;42.25;;;;;3.07;57.75;100467.69;2069792;28;46691;-66
2022/12/16 01:30:38;;;;;;;;;47.00;41.25;;;;;3.08;57.89;100468.56;2064990;28;45701;-67
2022/12/16 01:31:38;;;;;;;;;50.50;44.50;;;;;3.08;57.76;100461.56;2060740;28;46814;-66
2022/12/16 01:32:38;;;;;;;;;56.25;45.00;;;;;3.07;57.83;100465.06;2070124;28;46067;-66
2022/12/16 01:33:39;;;;;;;;;50.75;44.25;;;;;3.08;57.92;100468.56;2071885;28;46280;-67
2022/12/16 01:34:39;;;;;;;;;55.00;44.25;;;;;3.06;57.70;100465.94;2073892;28;47132;-67
2022/12/16 01:35:40;;;;;;;;;42.75;40.75;;;;;3.06;57.88;100476.41;2070846;28;46452;-65
2022/12/16 01:36:40;;;;;;;;;49.00;44.50;;;;;3.05;58.00;100474.66;2062453;28;46292;-65
2022/12/16 01:37:40;;;;;;;;;48.50;42.00;;;;;3.05;57.99;100473.75;2062018;28;46441;-67
2022/12/16 01:38:45;;;;;;;;;48.75;42.75;;;;;3.05;57.96;100477.28;2070926;28;46222;-67
2022/12/16 01:39:46;;;;;;;;;47.60;43.20;;;;;3.04;57.94;100475.50;2075097;28;46421;-67
2022/12/16 01:40:46;;;;;;;;;50.80;44.00;;;;;3.04;57.86;100480.75;2072929;28;46663;-67
2022/12/16 01:41:47;;;;;;;;;53.00;43.75;;;;;3.03;58.03;100479.00;2071718;28;46732;-66
2022/12/16 01:42:47;;;;;;;;;46.25;41.25;;;;;3.04;58.20;100480.75;2070852;28;46591;-66
2022/12/16 01:43:48;;;;;;;;;46.00;41.00;;;;;3.05;57.88;100486.88;2071324;28;46005;-66
2022/12/16 01:44:50;;;;;;;;;45.25;42.50;;;;;3.06;58.02;100486.03;2062079;28;46663;-66
2022/12/16 01:45:52;;;;;;;;;51.60;44.00;;;;;3.05;57.95;100487.78;2062969;28;46344;-66
2022/12/16 01:46:59;;;;;;;;;55.80;46.40;;;;;3.05;57.84;100484.25;2069596;28;46358;-66
2022/12/16 01:48:29;;;;;;;;;52.40;44.40;;;;;3.06;58.10;100488.66;2074504;28;45776;-66
2022/12/16 01:49:37;;;;;;;;;48.80;44.00;;;;;3.05;58.21;100492.13;2070909;28;46914;-65
2022/12/16 01:50:37;;;;;;;;;41.20;38.60;;;;;3.04;58.02;100499.09;2072211;28;46035;-66
2022/12/16 01:51:43;;;;;;;;;43.25;40.00;;;;;3.04;58.29;100493.84;2070629;28;46214;-66
2022/12/16 01:52:48;;;;;;;;;50.20;42.60;;;;;3.04;57.99;100493.84;2063779;28;46129;-66
2022/12/16 01:53:53;;;;;;;;;47.20;41.40;;;;;3.04;58.33;100490.38;2071752;28;46665;-65
2022/12/16 01:55:07;;;;;;;;;45.00;41.40;;;;;3.04;58.35;100504.34;2069979;28;46647;-65
2022/12/16 01:56:09;;;;;;;;;49.60;44.00;;;;;3.04;58.18;100499.09;2071810;28;46825;-66
2022/12/16 01:57:15;;;;;;;;;44.40;40.40;;;;;3.04;58.33;100506.97;2070099;28;46284;-66
2022/12/16 01:58:21;;;;;;;;;44.00;41.20;;;;;3.05;58.25;100507.84;2075922;28;45172;-67
2022/12/16 01:59:25;;;;;;;;;44.00;40.00;;;;;3.05;58.29;100516.63;2070490;28;46325;-65
2022/12/16 02:00:25;;;;;;;;;51.80;42.00;;;;;3.05;58.48;100508.75;2065321;28;47170;-65
2022/12/16 02:01:25;;;;;;;;;50.50;44.25;;;;;3.06;58.36;100513.13;2064425;28;46279;-66
2022/12/16 02:02:26;;;;;;;;;45.25;40.25;;;;;3.06;58.54;100514.88;2062683;28;45976;-66
2022/12/16 02:03:30;;;;;;;;;51.50;45.00;;;;;3.05;58.13;100520.94;2056159;28;45994;-66
2022/12/16 02:04:31;;;;;;;;;48.60;42.00;;;;;3.04;58.21;100517.44;2064638;28;47011;-67
2022/12/16 02:05:35;;;;;;;;;49.50;44.00;;;;;3.06;58.32;100520.13;2063271;28;46740;-66
2022/12/16 02:06:35;;;;;;;;;51.80;42.00;;;;;3.05;58.65;100526.19;2071746;28;46467;-68
2022/12/16 02:07:36;;;;;;;;;49.50;43.25;;;;;3.05;58.33;100523.56;2069834;28;46682;-65
2022/12/16 02:08:37;;;;;;;;;50.00;41.40;;;;;3.05;58.43;100524.47;2071166;28;46764;-66
2022/12/16 02:09:37;;;;;;;;;44.00;40.75;;;;;3.05;58.86;100526.19;2072369;28;46654;-66
2022/12/16 02:10:37;;;;;;;;;51.50;44.25;;;;;3.06;58.66;100533.22;2080214;28;46266;-67
2022/12/16 02:11:50;;;;;;;;;43.75;40.75;;;;;3.05;58.36;100518.31;2070636;28;46395;-68
2022/12/16 02:13:02;;;;;;;;;31.60;30.60;;;;;3.06;58.62;100525.34;2070254;28;46799;-65
2022/12/16 02:14:17;;;;;;;;;52.40;46.20;;;;;3.05;58.36;100524.47;2071023;28;47081;-66
2022/12/16 02:15:36;;;;;;;;;47.80;43.20;;;;;3.06;58.45;100530.59;2070309;28;46923;-66
2022/12/16 02:16:58;;;;;;;;;48.00;41.40;;;;;3.05;58.30;100527.09;2071458;28;46524;-66
2022/12/16 02:18:09;;;;;;;;;55.20;45.40;;;;;3.06;58.82;100526.22;2070676;28;46500;-66
2022/12/16 02:19:47;;;;;;;;;48.80;43.20;;;;;3.05;58.64;100523.56;2072609;28;46882;-67
2022/12/16 02:21:16;;;;;;;;;55.00;44.60;;;;;3.04;58.55;100522.69;2070085;28;45874;-67
2022/12/16 02:22:17;;;;;;;;;46.20;41.40;;;;;3.05;58.58;100518.31;2070094;28;47455;-64
2022/12/16 02:23:41;;;;;;;;;50.50;43.00;;;;;3.06;58.52;100527.97;2072350;28;46099;-65
2022/12/16 02:25:19;;;;;;;;;49.60;42.20;;;;;3.05;58.54;100526.19;2071031;28;46573;-66
2022/12/16 02:26:51;;;;;;;;;52.20;43.80;;;;;3.04;58.59;100520.06;2071344;28;46712;-65
2022/12/16 02:28:18;;;;;;;;;53.60;45.80;;;;;3.04;58.92;100533.19;2076058;28;46437;-66
2022/12/16 02:29:43;;;;;;;;;50.40;41.60;;;;;3.04;58.78;100533.19;2037627;28;45871;-66
2022/12/16 02:31:03;;;;;;;;;51.00;44.00;;;;;3.03;58.71;100528.81;2039508;28;45859;-66
2022/12/16 02:32:26;;;;;;;;;46.20;42.20;;;;;3.04;58.70;100527.06;2037931;28;46788;-67
2022/12/16 02:33:41;;;;;;;;;51.80;44.40;;;;;3.04;58.81;100516.56;2038953;28;46445;-66
2022/12/16 02:34:51;;;;;;;;;52.00;46.20;;;;;3.05;58.79;100528.81;2038447;28;46437;-66
2022/12/16 02:36:22;;;;;;;;;52.20;44.80;;;;;3.04;58.99;100525.31;2042288;28;47110;-67
2022/12/16 02:37:55;;;;;;;;;52.60;42.60;;;;;3.05;58.89;100519.25;2029196;28;46001;-66
2022/12/16 02:38:56;;;;;;;;;47.00;43.40;;;;;3.06;58.78;100522.72;2029407;29;47150;-67
2022/12/16 02:40:02;;;;;;;;;55.25;44.00;;;;;3.06;58.85;100518.38;2029913;29;46315;-67
2022/12/16 02:41:16;;;;;;;;;55.20;47.00;;;;;3.07;59.60;100519.25;2029300;28;46671;-67
2022/12/16 02:42:30;;;;;;;;;45.00;40.00;;;;;3.08;59.13;100523.63;2031115;28;45637;-67
2022/12/16 02:44:00;;;;;;;;;42.40;39.80;;;;;3.08;59.16;100516.63;2029562;28;46932;-66
2022/12/16 02:45:09;;;;;;;;;48.40;43.20;;;;;3.09;59.01;100521.00;2029137;29;46836;-66
2022/12/16 02:46:10;;;;;;;;;43.80;40.80;;;;;3.09;58.85;100523.63;2025886;29;46889;-66
2022/12/16 02:47:10;;;;;;;;;53.75;44.00;;;;;3.09;58.80;100526.25;2029282;29;46147;-67
2022/12/16 02:48:10;;;;;;;;;52.25;43.75;;;;;3.09;58.98;100526.25;2029771;28;45906;-67
2022/12/16 02:49:11;;;;;;;;;49.50;42.50;;;;;3.09;58.85;100521.00;2029881;28;46799;-67
2022/12/16 02:50:21;;;;;;;;;56.00;46.50;;;;;3.10;58.98;100520.13;2022995;29;46413;-66
2022/12/16 02:51:25;;;;;;;;;53.60;45.80;;;;;3.12;58.96;100523.63;2026074;29;46306;-66
2022/12/16 02:52:31;;;;;;;;;47.20;43.20;;;;;3.11;59.07;100521.88;2025106;29;46603;-66
2022/12/16 02:53:35;;;;;;;;;50.00;44.00;;;;;3.13;58.99;100521.88;2028800;29;46517;-67
2022/12/16 02:54:36;;;;;;;;;52.40;44.40;;;;;3.13;59.19;100532.38;2030882;29;46595;-67
2022/12/16 02:56:02;;;;;;;;;51.25;44.50;;;;;3.12;58.95;100533.25;2029149;29;46216;-66
2022/12/16 02:57:20;;;;;;;;;44.20;39.60;;;;;3.12;59.20;100528.00;2029438;28;46698;-67
2022/12/16 02:58:35;;;;;;;;;52.80;45.00;;;;;3.11;59.06;100532.38;2030192;29;46392;-66
2022/12/16 02:59:41;;;;;;;;;52.00;44.00;;;;;3.10;58.91;100527.13;2029454;29;47020;-67
2022/12/16 03:00:59;;;;;;;;;48.40;41.00;;;;;3.11;59.18;100534.97;2032035;28;47083;-67
2022/12/16 03:02:23;;;;;;;;;49.80;44.20;;;;;3.12;59.03;100531.50;2029953;29;46194;-67
2022/12/16 03:03:42;;;;;;;;;53.40;44.60;;;;;3.12;59.10;100535.84;2029084;29;46381;-67
2022/12/16 03:04:50;;;;;;;;;54.60;45.60;;;;;3.12;58.98;100528.00;2029409;29;45662;-66
2022/12/16 03:05:54;;;;;;;;;53.80;45.60;;;;;3.14;59.34;100539.38;2029800;29;45980;-66
2022/12/16 03:06:56;;;;;;;;;56.60;45.60;;;;;3.14;59.27;100542.84;2034980;28;47725;-67
2022/12/16 03:08:01;;;;;;;;;53.00;45.60;;;;;3.14;59.15;100539.38;2053724;28;46801;-66
2022/12/16 03:09:07;;;;;;;;;55.00;44.80;;;;;3.14;59.17;100539.38;2051464;28;46656;-66
2022/12/16 03:10:13;;;;;;;;;47.40;43.00;;;;;3.14;59.14;100540.25;2058027;28;45819;-66
2022/12/16 03:11:14;;;;;;;;;51.80;45.60;;;;;3.15;59.08;100543.75;2051716;28;47048;-65
2022/12/16 03:12:17;;;;;;;;;55.25;44.50;;;;;3.15;59.35;100543.75;2054604;28;45802;-66
2022/12/16 03:13:20;;;;;;;;;48.80;43.20;;;;;3.15;58.76;100536.75;2054157;28;46834;-65
2022/12/16 03:14:25;;;;;;;;;49.80;42.60;;;;;3.14;59.16;100545.47;2054214;28;47007;-66
2022/12/16 03:15:30;;;;;;;;;59.20;45.60;;;;;3.14;59.24;100550.72;2067961;28;45878;-68
2022/12/16 03:16:33;;;;;;;;;42.80;39.60;;;;;3.14;59.14;100544.59;2071569;28;46595;-66
2022/12/16 03:17:36;;;;;;;;;53.00;45.00;;;;;3.12;59.09;100539.34;2069029;28;46750;-65
2022/12/16 03:18:40;;;;;;;;;56.00;46.80;;;;;3.13;59.24;100548.09;2071124;28;47184;-67
2022/12/16 03:19:48;;;;;;;;;55.40;45.60;;;;;3.13;59.42;100540.22;2070198;28;46843;-65
2022/12/16 03:20:54;;;;;;;;;50.80;44.60;;;;;3.13;59.44;100548.97;2069981;28;46574;-67
2022/12/16 03:22:03;;;;;;;;;55.40;45.60;;;;;3.13;59.29;100537.63;2066221;28;46078;-68
2022/12/16 03:23:10;;;;;;;;;54.80;46.40;;;;;3.14;59.50;100549.84;2062343;28;45581;-67
2022/12/16 03:24:12;;;;;;;;;51.80;44.60;;;;;3.14;59.44;100544.59;2071093;28;46417;-67
2022/12/16 03:25:14;;;;;;;;;49.40;44.60;;;;;3.12;59.62;100543.72;2062490;28;46563;-67
2022/12/16 03:26:20;;;;;;;;;50.60;43.60;;;;;3.11;59.44;100542.84;2065355;28;46471;-67
2022/12/16 03:27:38;;;;;;;;;52.80;45.80;;;;;3.12;59.31;100543.72;2071892;28;46989;-68
2022/12/16 03:28:59;;;;;;;;;53.80;45.00;;;;;3.12;59.21;100547.22;2066452;28;46130;-67
2022/12/16 03:30:05;;;;;;;;;57.60;47.20;;;;;3.13;59.42;100545.47;2070941;28;46640;-67
2022/12/16 03:31:41;;;;;;;;;56.20;48.00;;;;;3.12;59.54;100541.97;2071696;28;46808;-68
2022/12/16 03:32:52;;;;;;;;;57.80;48.20;;;;;3.13;59.62;100546.34;2046345;28;46633;-65
2022/12/16 03:34:03;;;;;;;;;53.80;45.00;;;;;3.13;59.30;100548.97;2048376;28;46623;-65
2022/12/16 03:35:15;;;;;;;;;55.80;46.20;;;;;3.13;59.48;100551.59;2043067;28;47030;-66
2022/12/16 03:36:21;;;;;;;;;46.40;42.60;;;;;3.13;59.21;100553.34;2049577;28;46963;-66
2022/12/16 03:37:27;;;;;;;;;57.20;47.60;;;;;3.13;59.42;100554.22;2045842;28;45276;-66
2022/12/16 03:38:31;;;;;;;;;47.20;43.20;;;;;3.14;59.67;100555.97;2039915;28;46751;-67
2022/12/16 03:39:37;;;;;;;;;50.80;45.40;;;;;3.15;59.56;100557.72;2037874;28;46237;-67
2022/12/16 03:40:41;;;;;;;;;51.20;45.00;;;;;3.16;59.42;100553.34;2039652;28;46932;-66
2022/12/16 03:41:43;;;;;;;;;56.00;47.20;;;;;3.16;59.63;100555.97;2049458;28;46889;-67
2022/12/16 03:42:43;;;;;;;;;50.60;44.20;;;;;3.16;59.41;100558.59;2046389;28;47272;-66
2022/12/16 03:43:44;;;;;;;;;49.75;44.00;;;;;3.16;59.43;100562.09;2049105;28;46206;-67
2022/12/16 03:44:45;;;;;;;;;52.00;44.75;;;;;3.16;59.52;100563.84;2046547;28;46613;-66
2022/12/16 03:45:51;;;;;;;;;47.40;42.40;;;;;3.16;59.52;100563.84;2049627;28;46729;-67
2022/12/16 03:46:52;;;;;;;;;57.20;48.20;;;;;3.16;59.41;100556.84;2051941;28;46729;-66
2022/12/16 03:47:56;;;;;;;;;54.75;46.75;;;;;3.15;59.36;100564.72;2050425;28;46342;-66
2022/12/16 03:48:57;;;;;;;;;53.20;45.20;;;;;3.14;59.36;100561.22;2047616;28;46721;-66
2022/12/16 03:49:57;;;;;;;;;52.75;45.75;;;;;3.13;59.48;100561.22;2049868;28;46706;-63
2022/12/16 03:50:57;;;;;;;;;56.25;49.00;;;;;3.13;59.36;100562.09;2046037;28;46553;-64
2022/12/16 03:51:58;;;;;;;;;46.50;41.00;;;;;3.13;59.46;100564.72;2047801;28;45868;-64
2022/12/16 03:52:58;;;;;;;;;44.50;38.00;;;;;3.13;59.30;100563.84;2045942;28;46191;-64
2022/12/16 03:53:59;;;;;;;;;59.00;47.75;;;;;3.13;59.41;100563.84;2051877;28;46658;-65
2022/12/16 03:55:00;;;;;;;;;48.25;42.50;;;;;3.13;59.29;100562.09;2050417;28;46458;-64
2022/12/16 03:56:00;;;;;;;;;55.20;47.80;;;;;3.12;59.50;100568.19;2052157;28;46561;-65
2022/12/16 03:57:01;;;;;;;;;56.25;46.00;;;;;3.12;59.42;100569.94;2046187;28;46730;-65
2022/12/16 03:58:01;;;;;;;;;52.25;44.75;;;;;3.12;59.56;100568.19;2050452;28;46036;-64
2022/12/16 03:59:02;;;;;;;;;60.25;48.50;;;;;3.13;59.52;100566.44;2037592;28;46413;-65
2022/12/16 04:00:04;;;;;;;;;50.25;41.75;;;;;3.13;60.11;100564.72;2039456;28;46554;-66
2022/12/16 04:01:05;;;;;;;;;57.60;46.60;;;;;3.14;59.77;100563.84;2045890;28;47099;-66
2022/12/16 04:02:06;;;;;;;;;52.00;45.60;;;;;3.14;59.58;100571.69;2046809;28;46771;-66
2022/12/16 04:03:06;;;;;;;;;56.00;46.50;;;;;3.14;59.53;100566.47;2045668;28;46405;-66
2022/12/16 04:04:06;;;;;;;;;58.75;47.25;;;;;3.15;59.47;100567.34;2053113;28;46185;-65
2022/12/16 04:05:07;;;;;;;;;54.25;43.00;;;;;3.15;59.36;100568.22;2045496;28;46358;-66
2022/12/16 04:06:08;;;;;;;;;52.80;44.20;;;;;3.16;59.53;100569.97;2052342;28;46732;-66
2022/12/16 04:07:20;;;;;;;;;55.00;45.00;;;;;3.15;59.45;100573.44;2045946;28;46579;-66
2022/12/16 04:08:20;;;;;;;;;51.80;41.80;;;;;3.15;59.65;100573.44;2047228;28;46791;-66
2022/12/16 04:09:21;;;;;;;;;48.00;43.75;;;;;3.14;59.43;100569.09;2046498;28;46710;-66
2022/12/16 04:24:17;;;;;;;;;55.00;46.75;;;;;3.15;59.57;100570.84;2062695;28;46527;-65
2022/12/16 04:25:14;;;;;;;;;53.00;45.40;;;;;3.12;59.72;100593.53;2059921;28;47044;-66
2022/12/16 04:26:15;;;;;;;;;47.80;39.80;;;;;3.12;59.67;100598.78;2063567;28;46881;-66
2022/12/16 04:27:24;;;;;;;;;40.75;38.25;;;;;3.11;59.75;100597.91;2061728;28;46037;-67
2022/12/16 04:28:24;;;;;;;;;49.20;44.00;;;;;3.12;60.19;100599.66;2061203;28;46379;-66
2022/12/16 04:29:25;;;;;;;;;57.25;44.00;;;;;3.11;59.71;100597.03;2061376;28;46894;-66
2022/12/16 04:30:27;;;;;;;;;49.00;42.75;;;;;3.11;60.23;100597.91;2062839;28;46661;-66
2022/12/16 04:31:28;;;;;;;;;47.20;42.40;;;;;3.12;59.93;100601.41;2061735;28;47316;-66
2022/12/16 04:34:24;;;;;;;;;52.25;42.50;;;;;3.13;59.93;100604.03;2063356;28;46137;-66
